sensor_id;sensor_type;location;lat;lon;timestamp;P1;durP1;ratioP1;P2;durP2;ratioP2
47922;SDS011;33688;44.354;9.228;2022-08-01T00:01:29;0.60;;;0.60;;
47922;SDS011;33688;44.354;9.228;2022-08-01T00:04:01;0.68;;;0.68;;
47922;SDS011;33688;44.354;9.228;2022-08-01T00:06:27;0.68;;;0.68;;
47922;SDS011;33688;44.354;9.228;2022-08-01T00:08:53;0.60;;;0.60;;
47922;SDS011;33688;44.354;9.228;2022-08-01T00:11:19;0.88;;;0.70;;
47922;SDS011;33688;44.354;9.228;2022-08-01T00:13:48;0.52;;;0.52;;
47922;SDS011;33688;44.354;9.228;2022-08-01T00:16:14;0.68;;;0.68;;
47922;SDS011;33688;44.354;9.228;2022-08-01T00:18:44;0.60;;;0.60;;
47922;SDS011;33688;44.354;9.228;2022-08-01T00:21:10;0.82;;;0.70;;
47922;SDS011;33688;44.354;9.228;2022-08-01T00:23:35;1.10;;;1.00;;
47922;SDS011;33688;44.354;9.228;2022-08-01T00:26:01;0.60;;;0.60;;
47922;SDS011;33688;44.354;9.228;2022-08-01T00:28:30;0.95;;;0.95;;
47922;SDS011;33688;44.354;9.228;2022-08-01T00:30:56;0.85;;;0.80;;
47922;SDS011;33688;44.354;9.228;2022-08-01T00:33:24;0.43;;;0.43;;
47922;SDS011;33688;44.354;9.228;2022-08-01T00:35:50;0.50;;;0.50;;
47922;SDS011;33688;44.354;9.228;2022-08-01T00:38:16;0.60;;;0.60;;
47922;SDS011;33688;44.354;9.228;2022-08-01T00:40:41;0.65;;;0.65;;
47922;SDS011;33688;44.354;9.228;2022-08-01T00:43:10;0.65;;;0.65;;
47922;SDS011;33688;44.354;9.228;2022-08-01T00:45:36;0.63;;;0.63;;
47922;SDS011;33688;44.354;9.228;2022-08-01T00:48:04;0.70;;;0.70;;
47922;SDS011;33688;44.354;9.228;2022-08-01T00:50:43;0.60;;;0.60;;
47922;SDS011;33688;44.354;9.228;2022-08-01T00:53:10;0.55;;;0.55;;
47922;SDS011;33688;44.354;9.228;2022-08-01T00:55:35;0.70;;;0.70;;
47922;SDS011;33688;44.354;9.228;2022-08-01T00:58:04;0.60;;;0.60;;
47922;SDS011;33688;44.354;9.228;2022-08-01T01:00:31;0.98;;;0.80;;
47922;SDS011;33688;44.354;9.228;2022-08-01T01:03:01;0.73;;;0.70;;
47922;SDS011;33688;44.354;9.228;2022-08-01T01:05:27;0.60;;;0.60;;
47922;SDS011;33688;44.354;9.228;2022-08-01T01:08:04;0.75;;;0.75;;
47922;SDS011;33688;44.354;9.228;2022-08-01T01:16:15;0.65;;;0.60;;
47922;SDS011;33688;44.354;9.228;2022-08-01T01:32:04;0.65;;;0.65;;
47922;SDS011;33688;44.354;9.228;2022-08-01T01:34:34;0.47;;;0.47;;
47922;SDS011;33688;44.354;9.228;2022-08-01T01:37:06;0.60;;;0.60;;
47922;SDS011;33688;44.354;9.228;2022-08-01T01:39:36;0.60;;;0.60;;
47922;SDS011;33688;44.354;9.228;2022-08-01T01:42:04;0.60;;;0.60;;
47922;SDS011;33688;44.354;9.228;2022-08-01T01:44:34;0.60;;;0.60;;
47922;SDS011;33688;44.354;9.228;2022-08-01T01:47:02;0.95;;;0.95;;
47922;SDS011;33688;44.354;9.228;2022-08-01T01:49:30;0.52;;;0.50;;
47922;SDS011;33688;44.354;9.228;2022-08-01T01:51:58;0.70;;;0.70;;
47922;SDS011;33688;44.354;9.228;2022-08-01T01:54:28;0.75;;;0.75;;
47922;SDS011;33688;44.354;9.228;2022-08-01T01:57:02;2.42;;;0.57;;
47922;SDS011;33688;44.354;9.228;2022-08-01T01:59:31;0.65;;;0.65;;
47922;SDS011;33688;44.354;9.228;2022-08-01T02:02:02;0.68;;;0.63;;
47922;SDS011;33688;44.354;9.228;2022-08-01T02:04:30;0.63;;;0.63;;
47922;SDS011;33688;44.354;9.228;2022-08-01T02:07:00;0.52;;;0.52;;
47922;SDS011;33688;44.354;9.228;2022-08-01T02:09:31;0.57;;;0.57;;
47922;SDS011;33688;44.354;9.228;2022-08-01T02:11:59;0.68;;;0.68;;
47922;SDS011;33688;44.354;9.228;2022-08-01T02:14:29;0.70;;;0.70;;
47922;SDS011;33688;44.354;9.228;2022-08-01T02:16:58;0.70;;;0.70;;
47922;SDS011;33688;44.354;9.228;2022-08-01T02:19:28;0.70;;;0.70;;
47922;SDS011;33688;44.354;9.228;2022-08-01T02:21:55;0.93;;;0.65;;
47922;SDS011;33688;44.354;9.228;2022-08-01T02:27:29;0.52;;;0.52;;
47922;SDS011;33688;44.354;9.228;2022-08-01T02:30:04;0.55;;;0.55;;
47922;SDS011;33688;44.354;9.228;2022-08-01T02:32:40;0.57;;;0.57;;
47922;SDS011;33688;44.354;9.228;2022-08-01T02:35:13;0.82;;;0.82;;
47922;SDS011;33688;44.354;9.228;2022-08-01T02:37:57;0.70;;;0.70;;
47922;SDS011;33688;44.354;9.228;2022-08-01T02:40:26;0.60;;;0.60;;
47922;SDS011;33688;44.354;9.228;2022-08-01T02:42:55;0.70;;;0.70;;
47922;SDS011;33688;44.354;9.228;2022-08-01T02:45:27;0.60;;;0.60;;
47922;SDS011;33688;44.354;9.228;2022-08-01T02:47:58;0.60;;;0.40;;
47922;SDS011;33688;44.354;9.228;2022-08-01T02:50:34;0.77;;;0.60;;
47922;SDS011;33688;44.354;9.228;2022-08-01T02:53:18;0.50;;;0.50;;
47922;SDS011;33688;44.354;9.228;2022-08-01T02:55:47;0.60;;;0.60;;
47922;SDS011;33688;44.354;9.228;2022-08-01T02:58:16;0.60;;;0.60;;
47922;SDS011;33688;44.354;9.228;2022-08-01T03:00:46;0.60;;;0.60;;
47922;SDS011;33688;44.354;9.228;2022-08-01T03:03:13;0.57;;;0.57;;
47922;SDS011;33688;44.354;9.228;2022-08-01T03:05:44;0.63;;;0.63;;
47922;SDS011;33688;44.354;9.228;2022-08-01T03:08:12;0.60;;;0.60;;
47922;SDS011;33688;44.354;9.228;2022-08-01T03:10:39;1.30;;;1.00;;
47922;SDS011;33688;44.354;9.228;2022-08-01T03:13:08;0.32;;;0.32;;
47922;SDS011;33688;44.354;9.228;2022-08-01T03:15:39;0.57;;;0.57;;
47922;SDS011;33688;44.354;9.228;2022-08-01T03:18:08;0.30;;;0.30;;
47922;SDS011;33688;44.354;9.228;2022-08-01T03:20:36;0.70;;;0.65;;
47922;SDS011;33688;44.354;9.228;2022-08-01T03:23:04;0.43;;;0.43;;
47922;SDS011;33688;44.354;9.228;2022-08-01T03:25:36;0.50;;;0.50;;
47922;SDS011;33688;44.354;9.228;2022-08-01T03:28:06;0.45;;;0.45;;
47922;SDS011;33688;44.354;9.228;2022-08-01T03:30:34;0.60;;;0.60;;
47922;SDS011;33688;44.354;9.228;2022-08-01T03:33:02;0.40;;;0.40;;
47922;SDS011;33688;44.354;9.228;2022-08-01T03:35:29;0.63;;;0.63;;
47922;SDS011;33688;44.354;9.228;2022-08-01T03:38:01;0.80;;;0.60;;
47922;SDS011;33688;44.354;9.228;2022-08-01T03:40:43;0.60;;;0.60;;
47922;SDS011;33688;44.354;9.228;2022-08-01T03:43:37;0.60;;;0.60;;
47922;SDS011;33688;44.354;9.228;2022-08-01T03:46:11;0.60;;;0.60;;
47922;SDS011;33688;44.354;9.228;2022-08-01T03:48:51;0.50;;;0.50;;
47922;SDS011;33688;44.354;9.228;2022-08-01T03:51:20;0.50;;;0.50;;
47922;SDS011;33688;44.354;9.228;2022-08-01T03:53:47;0.40;;;0.40;;
47922;SDS011;33688;44.354;9.228;2022-08-01T03:56:18;0.60;;;0.60;;
47922;SDS011;33688;44.354;9.228;2022-08-01T03:58:46;0.60;;;0.60;;
47922;SDS011;33688;44.354;9.228;2022-08-01T04:01:16;0.63;;;0.60;;
47922;SDS011;33688;44.354;9.228;2022-08-01T04:03:43;0.47;;;0.47;;
47922;SDS011;33688;44.354;9.228;2022-08-01T04:06:13;0.40;;;0.40;;
47922;SDS011;33688;44.354;9.228;2022-08-01T04:08:39;0.50;;;0.50;;
47922;SDS011;33688;44.354;9.228;2022-08-01T04:11:09;0.52;;;0.52;;
47922;SDS011;33688;44.354;9.228;2022-08-01T04:13:35;0.50;;;0.50;;
47922;SDS011;33688;44.354;9.228;2022-08-01T04:16:04;0.60;;;0.60;;
47922;SDS011;33688;44.354;9.228;2022-08-01T04:18:30;0.50;;;0.50;;
47922;SDS011;33688;44.354;9.228;2022-08-01T04:20:56;0.60;;;0.60;;
47922;SDS011;33688;44.354;9.228;2022-08-01T04:23:22;0.60;;;0.60;;
47922;SDS011;33688;44.354;9.228;2022-08-01T04:25:54;1.15;;;0.50;;
47922;SDS011;33688;44.354;9.228;2022-08-01T04:28:21;0.60;;;0.60;;
47922;SDS011;33688;44.354;9.228;2022-08-01T04:30:52;0.50;;;0.50;;
47922;SDS011;33688;44.354;9.228;2022-08-01T04:33:20;0.60;;;0.60;;
47922;SDS011;33688;44.354;9.228;2022-08-01T04:35:50;0.52;;;0.52;;
47922;SDS011;33688;44.354;9.228;2022-08-01T04:38:19;0.70;;;0.70;;
47922;SDS011;33688;44.354;9.228;2022-08-01T04:40:52;0.60;;;0.60;;
47922;SDS011;33688;44.354;9.228;2022-08-01T04:43:19;0.60;;;0.50;;
47922;SDS011;33688;44.354;9.228;2022-08-01T04:45:49;0.68;;;0.63;;
47922;SDS011;33688;44.354;9.228;2022-08-01T04:48:17;0.50;;;0.50;;
47922;SDS011;33688;44.354;9.228;2022-08-01T04:50:46;0.60;;;0.60;;
47922;SDS011;33688;44.354;9.228;2022-08-01T04:53:15;0.60;;;0.60;;
47922;SDS011;33688;44.354;9.228;2022-08-01T04:58:14;0.50;;;0.50;;
47922;SDS011;33688;44.354;9.228;2022-08-01T05:00:40;0.57;;;0.57;;
47922;SDS011;33688;44.354;9.228;2022-08-01T05:03:06;0.60;;;0.60;;
47922;SDS011;33688;44.354;9.228;2022-08-01T05:05:32;0.50;;;0.50;;
47922;SDS011;33688;44.354;9.228;2022-08-01T05:07:58;0.55;;;0.55;;
47922;SDS011;33688;44.354;9.228;2022-08-01T05:10:28;0.35;;;0.35;;
47922;SDS011;33688;44.354;9.228;2022-08-01T05:12:54;0.65;;;0.65;;
47922;SDS011;33688;44.354;9.228;2022-08-01T05:15:23;0.57;;;0.57;;
47922;SDS011;33688;44.354;9.228;2022-08-01T05:17:49;0.75;;;0.60;;
47922;SDS011;33688;44.354;9.228;2022-08-01T05:20:17;0.45;;;0.45;;
47922;SDS011;33688;44.354;9.228;2022-08-01T05:22:43;0.55;;;0.55;;
47922;SDS011;33688;44.354;9.228;2022-08-01T05:25:12;0.50;;;0.50;;
47922;SDS011;33688;44.354;9.228;2022-08-01T05:27:38;0.38;;;0.38;;
47922;SDS011;33688;44.354;9.228;2022-08-01T05:30:09;0.50;;;0.50;;
47922;SDS011;33688;44.354;9.228;2022-08-01T05:32:36;0.57;;;0.40;;
47922;SDS011;33688;44.354;9.228;2022-08-01T05:35:05;0.55;;;0.52;;
47922;SDS011;33688;44.354;9.228;2022-08-01T05:37:32;0.55;;;0.55;;
47922;SDS011;33688;44.354;9.228;2022-08-01T05:40:01;0.40;;;0.40;;
47922;SDS011;33688;44.354;9.228;2022-08-01T05:42:27;0.43;;;0.43;;
47922;SDS011;33688;44.354;9.228;2022-08-01T05:44:55;0.70;;;0.60;;
47922;SDS011;33688;44.354;9.228;2022-08-01T05:47:21;0.40;;;0.40;;
47922;SDS011;33688;44.354;9.228;2022-08-01T05:49:50;1.15;;;0.65;;
47922;SDS011;33688;44.354;9.228;2022-08-01T05:52:15;0.60;;;0.60;;
47922;SDS011;33688;44.354;9.228;2022-08-01T05:54:41;0.75;;;0.55;;
47922;SDS011;33688;44.354;9.228;2022-08-01T05:57:16;0.50;;;0.50;;
47922;SDS011;33688;44.354;9.228;2022-08-01T05:59:41;0.40;;;0.40;;
47922;SDS011;33688;44.354;9.228;2022-08-01T06:02:08;0.50;;;0.50;;
47922;SDS011;33688;44.354;9.228;2022-08-01T06:04:36;0.50;;;0.50;;
47922;SDS011;33688;44.354;9.228;2022-08-01T06:07:02;0.73;;;0.73;;
47922;SDS011;33688;44.354;9.228;2022-08-01T06:09:31;0.30;;;0.30;;
47922;SDS011;33688;44.354;9.228;2022-08-01T06:11:56;0.60;;;0.60;;
47922;SDS011;33688;44.354;9.228;2022-08-01T06:14:25;0.60;;;0.57;;
47922;SDS011;33688;44.354;9.228;2022-08-01T06:16:51;0.57;;;0.57;;
47922;SDS011;33688;44.354;9.228;2022-08-01T06:19:17;0.60;;;0.60;;
47922;SDS011;33688;44.354;9.228;2022-08-01T06:21:42;0.63;;;0.63;;
47922;SDS011;33688;44.354;9.228;2022-08-01T06:24:08;0.65;;;0.60;;
47922;SDS011;33688;44.354;9.228;2022-08-01T06:26:34;1.08;;;0.90;;
47922;SDS011;33688;44.354;9.228;2022-08-01T06:29:02;2.20;;;0.90;;
47922;SDS011;33688;44.354;9.228;2022-08-01T06:31:37;1.23;;;1.13;;
47922;SDS011;33688;44.354;9.228;2022-08-01T06:34:23;2.10;;;0.93;;
47922;SDS011;33688;44.354;9.228;2022-08-01T06:36:49;3.85;;;1.30;;
47922;SDS011;33688;44.354;9.228;2022-08-01T06:39:14;2.70;;;1.30;;
47922;SDS011;33688;44.354;9.228;2022-08-01T06:42:00;2.67;;;1.10;;
47922;SDS011;33688;44.354;9.228;2022-08-01T06:44:25;3.20;;;1.88;;
47922;SDS011;33688;44.354;9.228;2022-08-01T06:46:51;2.08;;;1.27;;
47922;SDS011;33688;44.354;9.228;2022-08-01T06:49:16;4.75;;;1.35;;
47922;SDS011;33688;44.354;9.228;2022-08-01T06:51:42;8.23;;;1.70;;
47922;SDS011;33688;44.354;9.228;2022-08-01T06:54:08;6.20;;;2.00;;
47922;SDS011;33688;44.354;9.228;2022-08-01T06:56:39;3.83;;;1.73;;
47922;SDS011;33688;44.354;9.228;2022-08-01T06:59:05;2.58;;;1.80;;
47922;SDS011;33688;44.354;9.228;2022-08-01T07:01:31;5.07;;;1.67;;
47922;SDS011;33688;44.354;9.228;2022-08-01T07:03:56;2.17;;;1.65;;
47922;SDS011;33688;44.354;9.228;2022-08-01T07:06:24;2.20;;;1.20;;
47922;SDS011;33688;44.354;9.228;2022-08-01T07:08:51;4.82;;;1.58;;
47922;SDS011;33688;44.354;9.228;2022-08-01T07:11:18;2.92;;;1.63;;
47922;SDS011;33688;44.354;9.228;2022-08-01T07:13:44;3.83;;;1.38;;
47922;SDS011;33688;44.354;9.228;2022-08-01T07:16:16;10.90;;;1.67;;
47922;SDS011;33688;44.354;9.228;2022-08-01T07:18:45;2.63;;;1.63;;
47922;SDS011;33688;44.354;9.228;2022-08-01T07:21:11;3.78;;;1.40;;
47922;SDS011;33688;44.354;9.228;2022-08-01T07:23:39;2.45;;;2.00;;
47922;SDS011;33688;44.354;9.228;2022-08-01T07:26:05;4.10;;;1.20;;
47922;SDS011;33688;44.354;9.228;2022-08-01T07:28:31;2.63;;;1.70;;
47922;SDS011;33688;44.354;9.228;2022-08-01T07:30:58;1.95;;;1.25;;
47922;SDS011;33688;44.354;9.228;2022-08-01T07:33:23;1.95;;;1.25;;
47922;SDS011;33688;44.354;9.228;2022-08-01T07:35:49;1.67;;;1.40;;
47922;SDS011;33688;44.354;9.228;2022-08-01T07:38:15;3.13;;;1.40;;
47922;SDS011;33688;44.354;9.228;2022-08-01T07:40:42;2.60;;;1.30;;
47922;SDS011;33688;44.354;9.228;2022-08-01T07:43:09;1.60;;;1.30;;
47922;SDS011;33688;44.354;9.228;2022-08-01T07:45:35;4.05;;;1.63;;
47922;SDS011;33688;44.354;9.228;2022-08-01T07:48:07;6.75;;;1.80;;
47922;SDS011;33688;44.354;9.228;2022-08-01T07:53:01;3.28;;;1.90;;
47922;SDS011;33688;44.354;9.228;2022-08-01T07:55:27;2.13;;;1.40;;
47922;SDS011;33688;44.354;9.228;2022-08-01T07:57:53;1.30;;;1.00;;
47922;SDS011;33688;44.354;9.228;2022-08-01T08:00:19;1.58;;;1.00;;
47922;SDS011;33688;44.354;9.228;2022-08-01T08:02:45;2.30;;;1.48;;
47922;SDS011;33688;44.354;9.228;2022-08-01T08:05:11;1.60;;;1.17;;
47922;SDS011;33688;44.354;9.228;2022-08-01T08:07:40;2.35;;;1.63;;
47922;SDS011;33688;44.354;9.228;2022-08-01T08:10:08;4.13;;;1.55;;
47922;SDS011;33688;44.354;9.228;2022-08-01T08:12:39;2.65;;;0.98;;
47922;SDS011;33688;44.354;9.228;2022-08-01T08:15:05;2.10;;;1.50;;
47922;SDS011;33688;44.354;9.228;2022-08-01T08:17:34;2.40;;;1.30;;
47922;SDS011;33688;44.354;9.228;2022-08-01T08:20:01;3.67;;;1.63;;
47922;SDS011;33688;44.354;9.228;2022-08-01T08:22:28;3.25;;;1.63;;
47922;SDS011;33688;44.354;9.228;2022-08-01T08:24:53;3.38;;;1.42;;
47922;SDS011;33688;44.354;9.228;2022-08-01T08:27:19;1.35;;;1.25;;
47922;SDS011;33688;44.354;9.228;2022-08-01T08:29:45;1.52;;;1.42;;
47922;SDS011;33688;44.354;9.228;2022-08-01T08:32:14;2.15;;;1.50;;
47922;SDS011;33688;44.354;9.228;2022-08-01T08:34:39;1.95;;;1.42;;
47922;SDS011;33688;44.354;9.228;2022-08-01T08:37:05;1.00;;;1.00;;
47922;SDS011;33688;44.354;9.228;2022-08-01T08:39:32;3.00;;;1.10;;
47922;SDS011;33688;44.354;9.228;2022-08-01T08:42:12;1.15;;;1.05;;
47922;SDS011;33688;44.354;9.228;2022-08-01T08:44:45;2.55;;;1.55;;
47922;SDS011;33688;44.354;9.228;2022-08-01T08:47:12;1.73;;;1.10;;
47922;SDS011;33688;44.354;9.228;2022-08-01T08:49:39;23.00;;;1.80;;
47922;SDS011;33688;44.354;9.228;2022-08-01T08:52:09;6.70;;;1.45;;
47922;SDS011;33688;44.354;9.228;2022-08-01T08:54:39;5.47;;;1.25;;
47922;SDS011;33688;44.354;9.228;2022-08-01T08:57:10;3.95;;;1.30;;
47922;SDS011;33688;44.354;9.228;2022-08-01T08:59:39;7.05;;;1.30;;
47922;SDS011;33688;44.354;9.228;2022-08-01T09:02:08;5.40;;;2.08;;
47922;SDS011;33688;44.354;9.228;2022-08-01T09:04:35;1.42;;;1.33;;
47922;SDS011;33688;44.354;9.228;2022-08-01T09:07:04;3.15;;;1.02;;
47922;SDS011;33688;44.354;9.228;2022-08-01T09:09:30;1.83;;;1.20;;
47922;SDS011;33688;44.354;9.228;2022-08-01T09:11:56;2.90;;;1.00;;
47922;SDS011;33688;44.354;9.228;2022-08-01T09:14:22;1.30;;;1.00;;
47922;SDS011;33688;44.354;9.228;2022-08-01T09:17:01;1.40;;;1.20;;
47922;SDS011;33688;44.354;9.228;2022-08-01T09:19:38;1.85;;;1.17;;
47922;SDS011;33688;44.354;9.228;2022-08-01T09:22:19;5.80;;;1.10;;
47922;SDS011;33688;44.354;9.228;2022-08-01T09:25:02;1.52;;;1.23;;
47922;SDS011;33688;44.354;9.228;2022-08-01T09:27:34;2.33;;;1.20;;
47922;SDS011;33688;44.354;9.228;2022-08-01T09:30:11;3.67;;;1.20;;
47922;SDS011;33688;44.354;9.228;2022-08-01T09:32:58;2.20;;;1.20;;
47922;SDS011;33688;44.354;9.228;2022-08-01T09:35:27;1.10;;;0.98;;
47922;SDS011;33688;44.354;9.228;2022-08-01T09:46:00;1.45;;;1.25;;
47922;SDS011;33688;44.354;9.228;2022-08-01T09:48:35;2.08;;;1.30;;
47922;SDS011;33688;44.354;9.228;2022-08-01T09:51:04;1.55;;;1.30;;
47922;SDS011;33688;44.354;9.228;2022-08-01T09:53:46;5.18;;;1.38;;
47922;SDS011;33688;44.354;9.228;2022-08-01T09:56:13;1.88;;;1.00;;
47922;SDS011;33688;44.354;9.228;2022-08-01T10:01:22;3.17;;;1.08;;
47922;SDS011;33688;44.354;9.228;2022-08-01T10:04:04;1.27;;;1.15;;
47922;SDS011;33688;44.354;9.228;2022-08-01T10:06:47;2.47;;;1.35;;
47922;SDS011;33688;44.354;9.228;2022-08-01T10:09:28;1.50;;;1.02;;
47922;SDS011;33688;44.354;9.228;2022-08-01T10:11:59;1.52;;;1.00;;
47922;SDS011;33688;44.354;9.228;2022-08-01T10:14:27;1.85;;;1.00;;
47922;SDS011;33688;44.354;9.228;2022-08-01T10:16:58;2.17;;;1.00;;
47922;SDS011;33688;44.354;9.228;2022-08-01T10:19:26;1.13;;;1.00;;
47922;SDS011;33688;44.354;9.228;2022-08-01T10:21:54;5.38;;;1.27;;
47922;SDS011;33688;44.354;9.228;2022-08-01T10:24:22;1.80;;;1.27;;
47922;SDS011;33688;44.354;9.228;2022-08-01T10:26:51;1.88;;;1.17;;
47922;SDS011;33688;44.354;9.228;2022-08-01T10:29:21;0.98;;;0.88;;
47922;SDS011;33688;44.354;9.228;2022-08-01T10:31:49;2.22;;;1.30;;
47922;SDS011;33688;44.354;9.228;2022-08-01T10:34:27;2.67;;;1.63;;
47922;SDS011;33688;44.354;9.228;2022-08-01T10:36:54;9.45;;;2.42;;
47922;SDS011;33688;44.354;9.228;2022-08-01T10:39:20;3.35;;;1.98;;
47922;SDS011;33688;44.354;9.228;2022-08-01T10:41:46;2.95;;;2.25;;
47922;SDS011;33688;44.354;9.228;2022-08-01T10:44:13;5.90;;;2.17;;
47922;SDS011;33688;44.354;9.228;2022-08-01T10:46:39;2.00;;;1.80;;
47922;SDS011;33688;44.354;9.228;2022-08-01T10:49:13;1.85;;;1.75;;
47922;SDS011;33688;44.354;9.228;2022-08-01T10:51:42;2.70;;;1.83;;
47922;SDS011;33688;44.354;9.228;2022-08-01T10:54:10;2.13;;;1.95;;
47922;SDS011;33688;44.354;9.228;2022-08-01T10:56:47;1.70;;;1.60;;
47922;SDS011;33688;44.354;9.228;2022-08-01T11:02:11;1.70;;;1.60;;
47922;SDS011;33688;44.354;9.228;2022-08-01T11:07:06;2.40;;;1.60;;
47922;SDS011;33688;44.354;9.228;2022-08-01T11:12:15;1.80;;;1.70;;
47922;SDS011;33688;44.354;9.228;2022-08-01T11:17:33;4.13;;;1.45;;
47922;SDS011;33688;44.354;9.228;2022-08-01T11:20:15;1.52;;;1.42;;
47922;SDS011;33688;44.354;9.228;2022-08-01T11:25:26;1.40;;;1.30;;
47922;SDS011;33688;44.354;9.228;2022-08-01T11:30:43;1.52;;;1.42;;
47922;SDS011;33688;44.354;9.228;2022-08-01T11:33:14;1.60;;;1.50;;
47922;SDS011;33688;44.354;9.228;2022-08-01T11:38:40;1.50;;;1.40;;
47922;SDS011;33688;44.354;9.228;2022-08-01T11:41:16;1.55;;;1.45;;
47922;SDS011;33688;44.354;9.228;2022-08-01T11:46:57;1.38;;;1.13;;
47922;SDS011;33688;44.354;9.228;2022-08-01T11:52:27;1.50;;;1.40;;
47922;SDS011;33688;44.354;9.228;2022-08-01T11:57:27;1.52;;;1.30;;
47922;SDS011;33688;44.354;9.228;2022-08-01T11:59:57;1.33;;;1.23;;
47922;SDS011;33688;44.354;9.228;2022-08-01T12:02:31;1.58;;;1.45;;
47922;SDS011;33688;44.354;9.228;2022-08-01T12:05:08;1.90;;;1.23;;
47922;SDS011;33688;44.354;9.228;2022-08-01T12:07:40;1.30;;;1.10;;
47922;SDS011;33688;44.354;9.228;2022-08-01T12:10:14;1.50;;;1.20;;
47922;SDS011;33688;44.354;9.228;2022-08-01T12:15:24;1.65;;;1.25;;
47922;SDS011;33688;44.354;9.228;2022-08-01T12:17:59;1.27;;;1.17;;
47922;SDS011;33688;44.354;9.228;2022-08-01T12:20:32;1.13;;;1.13;;
47922;SDS011;33688;44.354;9.228;2022-08-01T12:23:27;3.05;;;1.30;;
47922;SDS011;33688;44.354;9.228;2022-08-01T12:25:52;1.38;;;1.17;;
47922;SDS011;33688;44.354;9.228;2022-08-01T12:28:18;1.67;;;1.10;;
47922;SDS011;33688;44.354;9.228;2022-08-01T12:30:46;3.15;;;1.50;;
47922;SDS011;33688;44.354;9.228;2022-08-01T12:33:16;1.35;;;1.20;;
47922;SDS011;33688;44.354;9.228;2022-08-01T12:35:44;2.05;;;1.35;;
47922;SDS011;33688;44.354;9.228;2022-08-01T12:38:15;1.88;;;1.30;;
47922;SDS011;33688;44.354;9.228;2022-08-01T12:40:47;2.78;;;1.65;;
47922;SDS011;33688;44.354;9.228;2022-08-01T12:43:17;1.75;;;1.15;;
47922;SDS011;33688;44.354;9.228;2022-08-01T12:45:49;3.50;;;1.40;;
47922;SDS011;33688;44.354;9.228;2022-08-01T12:48:16;2.72;;;1.30;;
47922;SDS011;33688;44.354;9.228;2022-08-01T12:50:44;3.67;;;1.50;;
47922;SDS011;33688;44.354;9.228;2022-08-01T12:53:11;6.38;;;1.52;;
47922;SDS011;33688;44.354;9.228;2022-08-01T12:55:46;1.63;;;1.52;;
47922;SDS011;33688;44.354;9.228;2022-08-01T12:58:15;1.38;;;1.27;;
47922;SDS011;33688;44.354;9.228;2022-08-01T13:00:43;1.98;;;1.30;;
47922;SDS011;33688;44.354;9.228;2022-08-01T13:03:15;1.83;;;1.27;;
47922;SDS011;33688;44.354;9.228;2022-08-01T13:05:43;2.20;;;1.30;;
47922;SDS011;33688;44.354;9.228;2022-08-01T13:08:21;6.38;;;1.77;;
47922;SDS011;33688;44.354;9.228;2022-08-01T13:11:04;3.13;;;1.55;;
47922;SDS011;33688;44.354;9.228;2022-08-01T13:13:48;2.23;;;1.40;;
47922;SDS011;33688;44.354;9.228;2022-08-01T13:16:17;2.30;;;1.40;;
47922;SDS011;33688;44.354;9.228;2022-08-01T13:18:49;2.75;;;1.30;;
47922;SDS011;33688;44.354;9.228;2022-08-01T13:21:18;2.25;;;1.33;;
47922;SDS011;33688;44.354;9.228;2022-08-01T13:29:15;1.67;;;1.58;;
47922;SDS011;33688;44.354;9.228;2022-08-01T13:31:42;1.27;;;1.17;;
47922;SDS011;33688;44.354;9.228;2022-08-01T13:34:09;1.23;;;1.13;;
47922;SDS011;33688;44.354;9.228;2022-08-01T13:36:38;1.83;;;1.73;;
47922;SDS011;33688;44.354;9.228;2022-08-01T13:39:04;1.27;;;1.15;;
47922;SDS011;33688;44.354;9.228;2022-08-01T13:41:50;1.40;;;1.30;;
47922;SDS011;33688;44.354;9.228;2022-08-01T13:44:16;1.90;;;1.38;;
47922;SDS011;33688;44.354;9.228;2022-08-01T13:46:45;2.05;;;1.30;;
47922;SDS011;33688;44.354;9.228;2022-08-01T13:49:12;1.60;;;1.20;;
47922;SDS011;33688;44.354;9.228;2022-08-01T13:51:38;1.27;;;1.15;;
47922;SDS011;33688;44.354;9.228;2022-08-01T13:54:05;1.25;;;1.15;;
47922;SDS011;33688;44.354;9.228;2022-08-01T13:56:31;1.40;;;1.30;;
47922;SDS011;33688;44.354;9.228;2022-08-01T13:58:57;2.45;;;1.48;;
47922;SDS011;33688;44.354;9.228;2022-08-01T14:01:23;1.55;;;1.35;;
47922;SDS011;33688;44.354;9.228;2022-08-01T14:03:50;1.42;;;1.33;;
47922;SDS011;33688;44.354;9.228;2022-08-01T14:06:16;1.88;;;1.33;;
47922;SDS011;33688;44.354;9.228;2022-08-01T14:08:44;2.28;;;1.30;;
47922;SDS011;33688;44.354;9.228;2022-08-01T14:11:10;1.50;;;1.40;;
47922;SDS011;33688;44.354;9.228;2022-08-01T14:13:39;4.00;;;1.40;;
47922;SDS011;33688;44.354;9.228;2022-08-01T14:16:05;1.52;;;1.20;;
47922;SDS011;33688;44.354;9.228;2022-08-01T14:18:32;2.80;;;1.35;;
47922;SDS011;33688;44.354;9.228;2022-08-01T14:20:58;1.63;;;1.27;;
47922;SDS011;33688;44.354;9.228;2022-08-01T14:23:24;2.08;;;1.27;;
47922;SDS011;33688;44.354;9.228;2022-08-01T14:25:53;2.30;;;1.42;;
47922;SDS011;33688;44.354;9.228;2022-08-01T14:28:19;2.00;;;1.30;;
47922;SDS011;33688;44.354;9.228;2022-08-01T14:30:45;4.88;;;1.50;;
47922;SDS011;33688;44.354;9.228;2022-08-01T14:33:12;5.47;;;1.38;;
47922;SDS011;33688;44.354;9.228;2022-08-01T14:35:38;3.28;;;1.40;;
47922;SDS011;33688;44.354;9.228;2022-08-01T14:38:05;1.42;;;1.33;;
47922;SDS011;33688;44.354;9.228;2022-08-01T14:40:32;1.35;;;1.13;;
47922;SDS011;33688;44.354;9.228;2022-08-01T14:42:58;1.83;;;1.63;;
47922;SDS011;33688;44.354;9.228;2022-08-01T14:45:26;1.45;;;1.25;;
47922;SDS011;33688;44.354;9.228;2022-08-01T14:47:55;1.27;;;1.17;;
47922;SDS011;33688;44.354;9.228;2022-08-01T14:50:21;2.20;;;1.40;;
47922;SDS011;33688;44.354;9.228;2022-08-01T14:52:49;1.65;;;1.40;;
47922;SDS011;33688;44.354;9.228;2022-08-01T14:55:14;2.75;;;1.80;;
47922;SDS011;33688;44.354;9.228;2022-08-01T14:57:40;2.17;;;1.30;;
47922;SDS011;33688;44.354;9.228;2022-08-01T15:00:08;1.70;;;1.40;;
47922;SDS011;33688;44.354;9.228;2022-08-01T15:02:37;2.05;;;1.23;;
47922;SDS011;33688;44.354;9.228;2022-08-01T15:05:06;1.70;;;1.60;;
47922;SDS011;33688;44.354;9.228;2022-08-01T15:07:32;1.50;;;1.40;;
47922;SDS011;33688;44.354;9.228;2022-08-01T15:09:58;2.97;;;1.30;;
47922;SDS011;33688;44.354;9.228;2022-08-01T15:12:24;1.50;;;1.40;;
47922;SDS011;33688;44.354;9.228;2022-08-01T15:14:50;4.78;;;1.40;;
47922;SDS011;33688;44.354;9.228;2022-08-01T15:17:25;1.40;;;1.30;;
47922;SDS011;33688;44.354;9.228;2022-08-01T15:19:58;2.25;;;1.52;;
47922;SDS011;33688;44.354;9.228;2022-08-01T15:22:27;1.38;;;1.27;;
47922;SDS011;33688;44.354;9.228;2022-08-01T15:24:54;1.70;;;1.02;;
47922;SDS011;33688;44.354;9.228;2022-08-01T15:27:23;1.38;;;1.25;;
47922;SDS011;33688;44.354;9.228;2022-08-01T15:29:51;1.25;;;1.00;;
47922;SDS011;33688;44.354;9.228;2022-08-01T15:32:17;1.25;;;1.15;;
47922;SDS011;33688;44.354;9.228;2022-08-01T15:34:43;1.30;;;1.20;;
47922;SDS011;33688;44.354;9.228;2022-08-01T15:37:10;4.75;;;1.13;;
47922;SDS011;33688;44.354;9.228;2022-08-01T15:39:36;1.60;;;1.10;;
47922;SDS011;33688;44.354;9.228;2022-08-01T15:42:21;1.35;;;1.20;;
47922;SDS011;33688;44.354;9.228;2022-08-01T15:44:47;4.35;;;1.17;;
47922;SDS011;33688;44.354;9.228;2022-08-01T15:47:14;1.40;;;1.17;;
47922;SDS011;33688;44.354;9.228;2022-08-01T15:49:40;1.05;;;0.95;;
47922;SDS011;33688;44.354;9.228;2022-08-01T15:52:06;1.25;;;0.93;;
47922;SDS011;33688;44.354;9.228;2022-08-01T15:54:33;1.73;;;1.05;;
47922;SDS011;33688;44.354;9.228;2022-08-01T15:57:00;2.45;;;1.77;;
47922;SDS011;33688;44.354;9.228;2022-08-01T15:59:27;1.75;;;1.42;;
47922;SDS011;33688;44.354;9.228;2022-08-01T16:01:54;1.33;;;1.23;;
47922;SDS011;33688;44.354;9.228;2022-08-01T16:04:19;1.50;;;1.40;;
47922;SDS011;33688;44.354;9.228;2022-08-01T16:06:48;1.63;;;1.30;;
47922;SDS011;33688;44.354;9.228;2022-08-01T16:09:14;2.45;;;1.23;;
47922;SDS011;33688;44.354;9.228;2022-08-01T16:11:40;1.83;;;1.17;;
47922;SDS011;33688;44.354;9.228;2022-08-01T16:14:05;2.22;;;1.00;;